Aviation Digital Data Service (ADDS)

Output produced by METARs form (0152 UTC 29 August 2016)
found at http://aviationweather.gov/adds/metars/
 
KLWB 282329Z 2900/2924 01004KT P6SM SCT030 
     FM290500 00000KT 5SM BR FEW060 
     FM290700 00000KT 1/4SM FG OVC002 
     FM291200 VRB03KT P6SM FEW050 
     FM291900 VRB03KT P6SM BKN050